sensor_id;sensor_type;location;lat;lon;timestamp;P1;durP1;ratioP1;P2;durP2;ratioP2
77026;SDS011;65956;52.986;17.490;2023-04-03T00:01:20;4.40;;;1.60;;
77026;SDS011;65956;52.986;17.490;2023-04-03T00:03:46;7.00;;;1.60;;
77026;SDS011;65956;52.986;17.490;2023-04-03T00:06:12;5.10;;;1.30;;
77026;SDS011;65956;52.986;17.490;2023-04-03T00:08:39;7.00;;;1.40;;
77026;SDS011;65956;52.986;17.490;2023-04-03T00:11:06;6.20;;;1.40;;
77026;SDS011;65956;52.986;17.490;2023-04-03T00:13:32;5.90;;;1.40;;
77026;SDS011;65956;52.986;17.490;2023-04-03T00:15:59;4.80;;;1.40;;
77026;SDS011;65956;52.986;17.490;2023-04-03T00:18:25;6.10;;;1.50;;
77026;SDS011;65956;52.986;17.490;2023-04-03T00:20:51;3.70;;;1.30;;
77026;SDS011;65956;52.986;17.490;2023-04-03T00:23:17;7.80;;;1.30;;
77026;SDS011;65956;52.986;17.490;2023-04-03T00:25:43;4.10;;;1.20;;
77026;SDS011;65956;52.986;17.490;2023-04-03T00:28:09;7.20;;;1.30;;
77026;SDS011;65956;52.986;17.490;2023-04-03T00:30:36;4.00;;;1.00;;
77026;SDS011;65956;52.986;17.490;2023-04-03T00:33:02;5.80;;;1.10;;
77026;SDS011;65956;52.986;17.490;2023-04-03T00:35:28;4.60;;;1.00;;
77026;SDS011;65956;52.986;17.490;2023-04-03T00:37:55;3.80;;;0.90;;
77026;SDS011;65956;52.986;17.490;2023-04-03T00:40:23;5.10;;;0.90;;
77026;SDS011;65956;52.986;17.490;2023-04-03T00:42:56;6.50;;;1.30;;
77026;SDS011;65956;52.986;17.490;2023-04-03T00:45:31;5.30;;;1.30;;
77026;SDS011;65956;52.986;17.490;2023-04-03T00:48:02;4.30;;;1.10;;
77026;SDS011;65956;52.986;17.490;2023-04-03T00:50:31;4.30;;;1.10;;
77026;SDS011;65956;52.986;17.490;2023-04-03T00:53:03;4.80;;;1.10;;
77026;SDS011;65956;52.986;17.490;2023-04-03T00:55:31;4.20;;;1.10;;
77026;SDS011;65956;52.986;17.490;2023-04-03T00:57:58;3.50;;;1.10;;
77026;SDS011;65956;52.986;17.490;2023-04-03T01:00:26;3.90;;;1.10;;
77026;SDS011;65956;52.986;17.490;2023-04-03T01:02:52;4.60;;;1.10;;
77026;SDS011;65956;52.986;17.490;2023-04-03T01:05:19;5.30;;;1.30;;
77026;SDS011;65956;52.986;17.490;2023-04-03T01:07:48;8.50;;;1.70;;
77026;SDS011;65956;52.986;17.490;2023-04-03T01:10:17;4.10;;;1.00;;
77026;SDS011;65956;52.986;17.490;2023-04-03T01:12:45;6.20;;;1.50;;
77026;SDS011;65956;52.986;17.490;2023-04-03T01:15:16;4.60;;;1.80;;
77026;SDS011;65956;52.986;17.490;2023-04-03T01:17:50;8.30;;;1.60;;
77026;SDS011;65956;52.986;17.490;2023-04-03T01:20:31;3.80;;;1.10;;
77026;SDS011;65956;52.986;17.490;2023-04-03T01:25:37;10.60;;;1.20;;
77026;SDS011;65956;52.986;17.490;2023-04-03T01:28:07;5.00;;;1.30;;
77026;SDS011;65956;52.986;17.490;2023-04-03T01:30:41;4.00;;;0.80;;
77026;SDS011;65956;52.986;17.490;2023-04-03T01:33:12;8.20;;;1.50;;
77026;SDS011;65956;52.986;17.490;2023-04-03T01:35:38;5.40;;;1.10;;
77026;SDS011;65956;52.986;17.490;2023-04-03T01:38:05;7.00;;;1.80;;
77026;SDS011;65956;52.986;17.490;2023-04-03T01:40:32;3.90;;;0.90;;
77026;SDS011;65956;52.986;17.490;2023-04-03T01:42:58;5.40;;;1.00;;
77026;SDS011;65956;52.986;17.490;2023-04-03T01:45:24;4.90;;;0.90;;
77026;SDS011;65956;52.986;17.490;2023-04-03T01:47:50;4.30;;;1.10;;
77026;SDS011;65956;52.986;17.490;2023-04-03T01:50:17;2.50;;;0.90;;
77026;SDS011;65956;52.986;17.490;2023-04-03T01:52:44;3.20;;;0.90;;
77026;SDS011;65956;52.986;17.490;2023-04-03T01:55:10;4.60;;;1.10;;
77026;SDS011;65956;52.986;17.490;2023-04-03T01:57:36;4.00;;;1.10;;
77026;SDS011;65956;52.986;17.490;2023-04-03T02:00:02;4.40;;;1.20;;
77026;SDS011;65956;52.986;17.490;2023-04-03T02:02:38;3.30;;;0.80;;
77026;SDS011;65956;52.986;17.490;2023-04-03T02:05:05;6.20;;;1.80;;
77026;SDS011;65956;52.986;17.490;2023-04-03T02:07:32;9.20;;;2.10;;
77026;SDS011;65956;52.986;17.490;2023-04-03T02:09:58;4.60;;;1.50;;
77026;SDS011;65956;52.986;17.490;2023-04-03T02:12:24;3.10;;;1.20;;
77026;SDS011;65956;52.986;17.490;2023-04-03T02:14:50;3.50;;;1.10;;
77026;SDS011;65956;52.986;17.490;2023-04-03T02:17:16;4.80;;;1.80;;
77026;SDS011;65956;52.986;17.490;2023-04-03T02:19:42;3.70;;;1.30;;
77026;SDS011;65956;52.986;17.490;2023-04-03T02:22:08;3.70;;;0.80;;
77026;SDS011;65956;52.986;17.490;2023-04-03T02:24:35;6.40;;;1.20;;
77026;SDS011;65956;52.986;17.490;2023-04-03T02:27:01;5.20;;;1.10;;
77026;SDS011;65956;52.986;17.490;2023-04-03T02:29:27;5.10;;;1.40;;
77026;SDS011;65956;52.986;17.490;2023-04-03T02:31:53;5.50;;;1.20;;
77026;SDS011;65956;52.986;17.490;2023-04-03T02:34:20;3.90;;;0.90;;
77026;SDS011;65956;52.986;17.490;2023-04-03T02:36:46;3.80;;;1.10;;
77026;SDS011;65956;52.986;17.490;2023-04-03T02:39:13;2.10;;;0.80;;
77026;SDS011;65956;52.986;17.490;2023-04-03T02:41:39;2.60;;;0.90;;
77026;SDS011;65956;52.986;17.490;2023-04-03T02:44:10;6.70;;;1.70;;
77026;SDS011;65956;52.986;17.490;2023-04-03T02:46:37;3.20;;;1.10;;
77026;SDS011;65956;52.986;17.490;2023-04-03T02:49:03;5.40;;;1.20;;
77026;SDS011;65956;52.986;17.490;2023-04-03T02:51:30;5.80;;;1.50;;
77026;SDS011;65956;52.986;17.490;2023-04-03T02:53:56;5.10;;;1.30;;
77026;SDS011;65956;52.986;17.490;2023-04-03T02:56:25;6.20;;;1.70;;
77026;SDS011;65956;52.986;17.490;2023-04-03T02:58:52;7.40;;;1.60;;
77026;SDS011;65956;52.986;17.490;2023-04-03T03:01:18;4.70;;;1.40;;
77026;SDS011;65956;52.986;17.490;2023-04-03T03:03:45;4.40;;;1.50;;
77026;SDS011;65956;52.986;17.490;2023-04-03T03:06:12;4.00;;;1.20;;
77026;SDS011;65956;52.986;17.490;2023-04-03T03:08:40;4.70;;;1.60;;
77026;SDS011;65956;52.986;17.490;2023-04-03T03:11:07;3.90;;;0.90;;
77026;SDS011;65956;52.986;17.490;2023-04-03T03:13:33;6.40;;;1.60;;
77026;SDS011;65956;52.986;17.490;2023-04-03T03:16:00;4.30;;;1.50;;
77026;SDS011;65956;52.986;17.490;2023-04-03T03:18:27;3.20;;;0.90;;
77026;SDS011;65956;52.986;17.490;2023-04-03T03:20:54;2.90;;;1.10;;
77026;SDS011;65956;52.986;17.490;2023-04-03T03:23:22;4.90;;;1.30;;
77026;SDS011;65956;52.986;17.490;2023-04-03T03:25:53;4.60;;;1.50;;
77026;SDS011;65956;52.986;17.490;2023-04-03T03:30:48;2.50;;;1.10;;
77026;SDS011;65956;52.986;17.490;2023-04-03T03:33:14;4.40;;;1.10;;
77026;SDS011;65956;52.986;17.490;2023-04-03T03:35:40;3.90;;;1.40;;
77026;SDS011;65956;52.986;17.490;2023-04-03T03:38:07;3.90;;;1.20;;
77026;SDS011;65956;52.986;17.490;2023-04-03T03:40:33;5.70;;;1.50;;
77026;SDS011;65956;52.986;17.490;2023-04-03T03:43:00;7.50;;;1.60;;
77026;SDS011;65956;52.986;17.490;2023-04-03T03:45:26;5.80;;;1.90;;
77026;SDS011;65956;52.986;17.490;2023-04-03T03:47:52;5.20;;;1.50;;
77026;SDS011;65956;52.986;17.490;2023-04-03T03:50:19;5.30;;;1.60;;
77026;SDS011;65956;52.986;17.490;2023-04-03T03:52:45;6.10;;;2.30;;
77026;SDS011;65956;52.986;17.490;2023-04-03T03:55:11;4.30;;;1.50;;
77026;SDS011;65956;52.986;17.490;2023-04-03T03:57:37;7.30;;;1.60;;
77026;SDS011;65956;52.986;17.490;2023-04-03T04:00:04;4.70;;;1.40;;
77026;SDS011;65956;52.986;17.490;2023-04-03T04:02:41;5.90;;;2.10;;
77026;SDS011;65956;52.986;17.490;2023-04-03T04:05:09;5.30;;;1.90;;
77026;SDS011;65956;52.986;17.490;2023-04-03T04:07:36;5.00;;;1.60;;
77026;SDS011;65956;52.986;17.490;2023-04-03T04:10:03;8.90;;;2.50;;
77026;SDS011;65956;52.986;17.490;2023-04-03T04:12:31;6.80;;;2.10;;
77026;SDS011;65956;52.986;17.490;2023-04-03T04:14:57;6.30;;;2.10;;
77026;SDS011;65956;52.986;17.490;2023-04-03T04:17:23;5.80;;;1.60;;
77026;SDS011;65956;52.986;17.490;2023-04-03T04:19:49;6.20;;;2.00;;
77026;SDS011;65956;52.986;17.490;2023-04-03T04:22:16;8.30;;;1.80;;
77026;SDS011;65956;52.986;17.490;2023-04-03T04:24:42;5.70;;;2.20;;
77026;SDS011;65956;52.986;17.490;2023-04-03T04:27:08;5.80;;;2.10;;
77026;SDS011;65956;52.986;17.490;2023-04-03T04:29:35;5.10;;;1.60;;
77026;SDS011;65956;52.986;17.490;2023-04-03T04:32:03;4.00;;;1.60;;
77026;SDS011;65956;52.986;17.490;2023-04-03T04:34:30;7.40;;;2.00;;
77026;SDS011;65956;52.986;17.490;2023-04-03T04:36:56;8.00;;;2.20;;
77026;SDS011;65956;52.986;17.490;2023-04-03T04:39:23;8.10;;;2.20;;
77026;SDS011;65956;52.986;17.490;2023-04-03T04:41:49;10.00;;;2.50;;
77026;SDS011;65956;52.986;17.490;2023-04-03T04:44:16;8.70;;;2.60;;
77026;SDS011;65956;52.986;17.490;2023-04-03T04:46:42;4.20;;;1.50;;
77026;SDS011;65956;52.986;17.490;2023-04-03T04:49:08;8.50;;;2.30;;
77026;SDS011;65956;52.986;17.490;2023-04-03T04:51:34;6.30;;;2.00;;
77026;SDS011;65956;52.986;17.490;2023-04-03T04:54:01;10.40;;;2.80;;
77026;SDS011;65956;52.986;17.490;2023-04-03T04:56:27;7.20;;;2.20;;
77026;SDS011;65956;52.986;17.490;2023-04-03T04:58:54;5.80;;;1.80;;
77026;SDS011;65956;52.986;17.490;2023-04-03T05:01:20;5.50;;;1.60;;
77026;SDS011;65956;52.986;17.490;2023-04-03T05:03:58;5.00;;;1.60;;
77026;SDS011;65956;52.986;17.490;2023-04-03T05:06:25;7.00;;;2.20;;
77026;SDS011;65956;52.986;17.490;2023-04-03T05:08:51;7.70;;;2.50;;
77026;SDS011;65956;52.986;17.490;2023-04-03T05:11:17;9.70;;;3.90;;
77026;SDS011;65956;52.986;17.490;2023-04-03T05:13:44;9.90;;;3.20;;
77026;SDS011;65956;52.986;17.490;2023-04-03T05:16:10;10.30;;;3.10;;
77026;SDS011;65956;52.986;17.490;2023-04-03T05:18:37;7.60;;;2.20;;
77026;SDS011;65956;52.986;17.490;2023-04-03T05:21:06;8.70;;;2.50;;
77026;SDS011;65956;52.986;17.490;2023-04-03T05:23:33;14.00;;;4.20;;
77026;SDS011;65956;52.986;17.490;2023-04-03T05:25:59;15.70;;;4.90;;
77026;SDS011;65956;52.986;17.490;2023-04-03T05:28:26;12.50;;;3.90;;
77026;SDS011;65956;52.986;17.490;2023-04-03T05:30:53;9.10;;;3.30;;
77026;SDS011;65956;52.986;17.490;2023-04-03T05:33:21;10.10;;;5.00;;
77026;SDS011;65956;52.986;17.490;2023-04-03T05:35:51;9.70;;;3.00;;
77026;SDS011;65956;52.986;17.490;2023-04-03T05:38:20;8.40;;;3.60;;
77026;SDS011;65956;52.986;17.490;2023-04-03T05:40:46;8.60;;;3.10;;
77026;SDS011;65956;52.986;17.490;2023-04-03T05:43:12;8.50;;;3.40;;
77026;SDS011;65956;52.986;17.490;2023-04-03T05:45:39;13.00;;;5.10;;
77026;SDS011;65956;52.986;17.490;2023-04-03T05:48:06;9.20;;;3.60;;
77026;SDS011;65956;52.986;17.490;2023-04-03T05:50:34;10.90;;;4.40;;
77026;SDS011;65956;52.986;17.490;2023-04-03T05:53:01;5.40;;;1.70;;
77026;SDS011;65956;52.986;17.490;2023-04-03T05:55:30;4.50;;;1.50;;
77026;SDS011;65956;52.986;17.490;2023-04-03T05:57:56;6.20;;;1.70;;
77026;SDS011;65956;52.986;17.490;2023-04-03T06:00:23;10.80;;;1.70;;
77026;SDS011;65956;52.986;17.490;2023-04-03T06:02:56;4.30;;;1.30;;
77026;SDS011;65956;52.986;17.490;2023-04-03T06:05:23;7.30;;;2.10;;
77026;SDS011;65956;52.986;17.490;2023-04-03T06:07:49;4.10;;;1.40;;
77026;SDS011;65956;52.986;17.490;2023-04-03T06:10:15;8.80;;;3.10;;
77026;SDS011;65956;52.986;17.490;2023-04-03T06:12:42;6.80;;;2.80;;
77026;SDS011;65956;52.986;17.490;2023-04-03T06:15:08;10.40;;;3.70;;
77026;SDS011;65956;52.986;17.490;2023-04-03T06:17:36;8.60;;;2.60;;
77026;SDS011;65956;52.986;17.490;2023-04-03T06:20:03;5.40;;;1.90;;
77026;SDS011;65956;52.986;17.490;2023-04-03T06:22:30;7.20;;;2.20;;
77026;SDS011;65956;52.986;17.490;2023-04-03T06:24:56;9.80;;;4.20;;
77026;SDS011;65956;52.986;17.490;2023-04-03T06:27:23;10.10;;;3.10;;
77026;SDS011;65956;52.986;17.490;2023-04-03T06:29:49;8.00;;;2.50;;
77026;SDS011;65956;52.986;17.490;2023-04-03T06:32:15;12.10;;;3.40;;
77026;SDS011;65956;52.986;17.490;2023-04-03T06:34:42;25.20;;;7.20;;
77026;SDS011;65956;52.986;17.490;2023-04-03T06:37:17;19.10;;;5.70;;
77026;SDS011;65956;52.986;17.490;2023-04-03T06:39:45;26.50;;;8.30;;
77026;SDS011;65956;52.986;17.490;2023-04-03T06:42:12;14.10;;;5.80;;
77026;SDS011;65956;52.986;17.490;2023-04-03T06:44:45;23.40;;;7.80;;
77026;SDS011;65956;52.986;17.490;2023-04-03T06:47:12;21.60;;;8.60;;
77026;SDS011;65956;52.986;17.490;2023-04-03T06:49:40;14.90;;;5.80;;
77026;SDS011;65956;52.986;17.490;2023-04-03T06:52:07;13.30;;;4.10;;
77026;SDS011;65956;52.986;17.490;2023-04-03T06:54:34;10.10;;;3.50;;
77026;SDS011;65956;52.986;17.490;2023-04-03T06:57:01;10.10;;;3.00;;
77026;SDS011;65956;52.986;17.490;2023-04-03T06:59:28;8.50;;;2.80;;
77026;SDS011;65956;52.986;17.490;2023-04-03T07:01:54;9.50;;;3.20;;
77026;SDS011;65956;52.986;17.490;2023-04-03T07:04:20;13.50;;;4.30;;
77026;SDS011;65956;52.986;17.490;2023-04-03T07:06:46;5.00;;;1.40;;
77026;SDS011;65956;52.986;17.490;2023-04-03T07:09:13;8.50;;;2.60;;
77026;SDS011;65956;52.986;17.490;2023-04-03T07:11:40;11.70;;;3.80;;
77026;SDS011;65956;52.986;17.490;2023-04-03T07:14:06;24.60;;;6.80;;
77026;SDS011;65956;52.986;17.490;2023-04-03T07:16:34;45.80;;;12.10;;
77026;SDS011;65956;52.986;17.490;2023-04-03T07:19:01;26.90;;;6.30;;
77026;SDS011;65956;52.986;17.490;2023-04-03T07:21:27;14.40;;;3.40;;
77026;SDS011;65956;52.986;17.490;2023-04-03T07:23:53;21.10;;;5.00;;
77026;SDS011;65956;52.986;17.490;2023-04-03T07:26:20;16.80;;;5.20;;
77026;SDS011;65956;52.986;17.490;2023-04-03T07:28:48;13.50;;;2.90;;
77026;SDS011;65956;52.986;17.490;2023-04-03T07:31:15;10.40;;;2.50;;
77026;SDS011;65956;52.986;17.490;2023-04-03T07:33:43;5.80;;;1.90;;
77026;SDS011;65956;52.986;17.490;2023-04-03T07:36:11;7.70;;;2.30;;
77026;SDS011;65956;52.986;17.490;2023-04-03T07:38:41;7.30;;;1.60;;
77026;SDS011;65956;52.986;17.490;2023-04-03T07:41:07;5.90;;;1.90;;
77026;SDS011;65956;52.986;17.490;2023-04-03T07:43:45;7.70;;;2.10;;
77026;SDS011;65956;52.986;17.490;2023-04-03T07:46:12;16.80;;;4.70;;
77026;SDS011;65956;52.986;17.490;2023-04-03T07:48:38;9.80;;;3.20;;
77026;SDS011;65956;52.986;17.490;2023-04-03T07:51:05;5.70;;;1.80;;
77026;SDS011;65956;52.986;17.490;2023-04-03T07:53:32;12.40;;;4.90;;
77026;SDS011;65956;52.986;17.490;2023-04-03T07:55:59;6.70;;;2.60;;
77026;SDS011;65956;52.986;17.490;2023-04-03T07:58:25;6.20;;;3.00;;
77026;SDS011;65956;52.986;17.490;2023-04-03T08:00:52;10.70;;;2.70;;
77026;SDS011;65956;52.986;17.490;2023-04-03T08:03:18;9.30;;;3.30;;
77026;SDS011;65956;52.986;17.490;2023-04-03T08:05:45;8.00;;;2.60;;
77026;SDS011;65956;52.986;17.490;2023-04-03T08:08:13;10.70;;;2.90;;
77026;SDS011;65956;52.986;17.490;2023-04-03T08:10:42;17.20;;;4.60;;
77026;SDS011;65956;52.986;17.490;2023-04-03T08:13:08;13.70;;;4.90;;
77026;SDS011;65956;52.986;17.490;2023-04-03T08:15:35;13.20;;;4.00;;
77026;SDS011;65956;52.986;17.490;2023-04-03T08:18:02;9.60;;;3.50;;
77026;SDS011;65956;52.986;17.490;2023-04-03T08:20:29;11.20;;;3.90;;
77026;SDS011;65956;52.986;17.490;2023-04-03T08:22:55;7.50;;;3.10;;
77026;SDS011;65956;52.986;17.490;2023-04-03T08:25:22;9.00;;;2.50;;
77026;SDS011;65956;52.986;17.490;2023-04-03T08:27:48;7.50;;;2.30;;
77026;SDS011;65956;52.986;17.490;2023-04-03T08:30:14;12.20;;;3.80;;
77026;SDS011;65956;52.986;17.490;2023-04-03T08:32:40;10.30;;;3.90;;
77026;SDS011;65956;52.986;17.490;2023-04-03T08:35:08;11.40;;;3.80;;
77026;SDS011;65956;52.986;17.490;2023-04-03T08:37:35;5.00;;;2.00;;
77026;SDS011;65956;52.986;17.490;2023-04-03T08:40:03;4.20;;;1.50;;
77026;SDS011;65956;52.986;17.490;2023-04-03T08:48:07;9.90;;;3.50;;
77026;SDS011;65956;52.986;17.490;2023-04-03T08:50:40;15.50;;;5.70;;
77026;SDS011;65956;52.986;17.490;2023-04-03T08:53:13;12.50;;;4.70;;
77026;SDS011;65956;52.986;17.490;2023-04-03T08:55:45;9.60;;;3.30;;
77026;SDS011;65956;52.986;17.490;2023-04-03T09:01:57;10.80;;;3.70;;
77026;SDS011;65956;52.986;17.490;2023-04-03T09:04:27;21.70;;;6.60;;
77026;SDS011;65956;52.986;17.490;2023-04-03T09:07:02;8.50;;;2.40;;
77026;SDS011;65956;52.986;17.490;2023-04-03T09:09:41;6.10;;;2.00;;
77026;SDS011;65956;52.986;17.490;2023-04-03T09:12:21;9.80;;;2.90;;
77026;SDS011;65956;52.986;17.490;2023-04-03T09:17:53;10.70;;;3.70;;
77026;SDS011;65956;52.986;17.490;2023-04-03T09:20:26;5.80;;;2.20;;
77026;SDS011;65956;52.986;17.490;2023-04-03T09:26:04;5.10;;;2.20;;
77026;SDS011;65956;52.986;17.490;2023-04-03T09:28:36;5.70;;;1.90;;
77026;SDS011;65956;52.986;17.490;2023-04-03T09:34:14;5.80;;;1.80;;
77026;SDS011;65956;52.986;17.490;2023-04-03T09:36:48;7.00;;;3.30;;
77026;SDS011;65956;52.986;17.490;2023-04-03T09:39:20;7.70;;;2.40;;
77026;SDS011;65956;52.986;17.490;2023-04-03T09:41:59;9.40;;;4.50;;
77026;SDS011;65956;52.986;17.490;2023-04-03T09:44:37;5.00;;;2.10;;
77026;SDS011;65956;52.986;17.490;2023-04-03T09:47:17;6.60;;;2.60;;
77026;SDS011;65956;52.986;17.490;2023-04-03T09:49:49;5.00;;;1.60;;
77026;SDS011;65956;52.986;17.490;2023-04-03T09:52:33;4.80;;;1.90;;
77026;SDS011;65956;52.986;17.490;2023-04-03T09:55:19;8.80;;;3.70;;
77026;SDS011;65956;52.986;17.490;2023-04-03T09:57:47;12.00;;;4.80;;
77026;SDS011;65956;52.986;17.490;2023-04-03T10:02:49;14.30;;;6.90;;
77026;SDS011;65956;52.986;17.490;2023-04-03T10:10:42;9.30;;;4.30;;
77026;SDS011;65956;52.986;17.490;2023-04-03T10:13:14;12.90;;;5.00;;
77026;SDS011;65956;52.986;17.490;2023-04-03T10:16:08;15.80;;;7.60;;
77026;SDS011;65956;52.986;17.490;2023-04-03T10:18:42;9.00;;;3.80;;
77026;SDS011;65956;52.986;17.490;2023-04-03T10:24:11;7.70;;;3.20;;
77026;SDS011;65956;52.986;17.490;2023-04-03T10:32:06;11.30;;;2.50;;
77026;SDS011;65956;52.986;17.490;2023-04-03T10:35:02;10.00;;;4.00;;
77026;SDS011;65956;52.986;17.490;2023-04-03T10:37:30;11.20;;;3.60;;
77026;SDS011;65956;52.986;17.490;2023-04-03T10:42:44;9.40;;;2.90;;
77026;SDS011;65956;52.986;17.490;2023-04-03T10:47:57;10.70;;;6.20;;
77026;SDS011;65956;52.986;17.490;2023-04-03T10:53:13;8.90;;;3.70;;
77026;SDS011;65956;52.986;17.490;2023-04-03T10:55:54;9.80;;;3.20;;
77026;SDS011;65956;52.986;17.490;2023-04-03T10:58:39;8.70;;;4.10;;
77026;SDS011;65956;52.986;17.490;2023-04-03T11:01:11;8.90;;;3.10;;
77026;SDS011;65956;52.986;17.490;2023-04-03T11:03:49;8.30;;;3.70;;
77026;SDS011;65956;52.986;17.490;2023-04-03T11:06:19;10.10;;;4.30;;
77026;SDS011;65956;52.986;17.490;2023-04-03T11:09:02;11.40;;;5.10;;
77026;SDS011;65956;52.986;17.490;2023-04-03T11:11:37;10.40;;;5.40;;
77026;SDS011;65956;52.986;17.490;2023-04-03T11:16:46;14.20;;;7.50;;
77026;SDS011;65956;52.986;17.490;2023-04-03T11:19:18;9.20;;;4.70;;
77026;SDS011;65956;52.986;17.490;2023-04-03T11:22:03;11.10;;;4.80;;
77026;SDS011;65956;52.986;17.490;2023-04-03T11:24:37;7.80;;;3.50;;
77026;SDS011;65956;52.986;17.490;2023-04-03T11:27:08;9.40;;;4.60;;
77026;SDS011;65956;52.986;17.490;2023-04-03T11:29:44;6.40;;;3.60;;
77026;SDS011;65956;52.986;17.490;2023-04-03T11:34:48;5.90;;;1.50;;
77026;SDS011;65956;52.986;17.490;2023-04-03T11:37:23;9.20;;;4.90;;
77026;SDS011;65956;52.986;17.490;2023-04-03T11:39:56;9.50;;;3.60;;
77026;SDS011;65956;52.986;17.490;2023-04-03T11:42:34;5.80;;;3.10;;
77026;SDS011;65956;52.986;17.490;2023-04-03T11:47:51;23.50;;;11.60;;
77026;SDS011;65956;52.986;17.490;2023-04-03T11:50:32;8.40;;;4.00;;
77026;SDS011;65956;52.986;17.490;2023-04-03T12:05:48;8.60;;;4.40;;
77026;SDS011;65956;52.986;17.490;2023-04-03T12:08:46;5.70;;;2.70;;
77026;SDS011;65956;52.986;17.490;2023-04-03T12:11:31;13.30;;;7.70;;
77026;SDS011;65956;52.986;17.490;2023-04-03T12:16:33;5.30;;;2.70;;
77026;SDS011;65956;52.986;17.490;2023-04-03T12:24:23;48.50;;;16.80;;
77026;SDS011;65956;52.986;17.490;2023-04-03T12:34:53;15.90;;;6.10;;
77026;SDS011;65956;52.986;17.490;2023-04-03T12:40:10;22.50;;;6.90;;
77026;SDS011;65956;52.986;17.490;2023-04-03T12:42:55;52.50;;;14.80;;
77026;SDS011;65956;52.986;17.490;2023-04-03T12:45:40;29.30;;;13.50;;
77026;SDS011;65956;52.986;17.490;2023-04-03T12:48:17;27.60;;;14.80;;
77026;SDS011;65956;52.986;17.490;2023-04-03T12:50:47;45.30;;;22.60;;
77026;SDS011;65956;52.986;17.490;2023-04-03T12:53:22;50.80;;;20.60;;
77026;SDS011;65956;52.986;17.490;2023-04-03T12:55:55;19.50;;;9.30;;
77026;SDS011;65956;52.986;17.490;2023-04-03T12:58:26;19.10;;;10.10;;
77026;SDS011;65956;52.986;17.490;2023-04-03T13:01:24;28.80;;;14.60;;
77026;SDS011;65956;52.986;17.490;2023-04-03T13:03:52;75.30;;;26.20;;
77026;SDS011;65956;52.986;17.490;2023-04-03T13:06:23;20.90;;;9.40;;
77026;SDS011;65956;52.986;17.490;2023-04-03T13:08:58;61.10;;;17.30;;
77026;SDS011;65956;52.986;17.490;2023-04-03T13:11:47;58.50;;;23.00;;
77026;SDS011;65956;52.986;17.490;2023-04-03T13:14:15;116.70;;;36.80;;
77026;SDS011;65956;52.986;17.490;2023-04-03T13:16:53;27.70;;;12.40;;
77026;SDS011;65956;52.986;17.490;2023-04-03T13:19:30;18.60;;;10.90;;
77026;SDS011;65956;52.986;17.490;2023-04-03T13:22:04;17.60;;;9.00;;
77026;SDS011;65956;52.986;17.490;2023-04-03T13:24:45;16.30;;;9.10;;
77026;SDS011;65956;52.986;17.490;2023-04-03T13:27:14;29.20;;;14.00;;
77026;SDS011;65956;52.986;17.490;2023-04-03T13:29:40;22.90;;;12.40;;
77026;SDS011;65956;52.986;17.490;2023-04-03T13:32:07;37.60;;;10.60;;
77026;SDS011;65956;52.986;17.490;2023-04-03T13:34:45;13.40;;;7.40;;
77026;SDS011;65956;52.986;17.490;2023-04-03T13:40:00;16.00;;;7.40;;
77026;SDS011;65956;52.986;17.490;2023-04-03T13:42:39;11.90;;;5.50;;
77026;SDS011;65956;52.986;17.490;2023-04-03T13:45:18;11.40;;;5.20;;
77026;SDS011;65956;52.986;17.490;2023-04-03T13:47:52;7.40;;;3.70;;
77026;SDS011;65956;52.986;17.490;2023-04-03T13:50:31;12.80;;;5.90;;
77026;SDS011;65956;52.986;17.490;2023-04-03T13:53:02;18.20;;;7.70;;
77026;SDS011;65956;52.986;17.490;2023-04-03T13:55:36;19.20;;;6.60;;
77026;SDS011;65956;52.986;17.490;2023-04-03T13:58:25;17.10;;;6.20;;
77026;SDS011;65956;52.986;17.490;2023-04-03T14:01:14;13.70;;;6.00;;
77026;SDS011;65956;52.986;17.490;2023-04-03T14:06:23;20.20;;;8.40;;
77026;SDS011;65956;52.986;17.490;2023-04-03T14:08:51;19.10;;;7.10;;
77026;SDS011;65956;52.986;17.490;2023-04-03T14:11:22;24.30;;;11.30;;
77026;SDS011;65956;52.986;17.490;2023-04-03T14:13:53;22.50;;;11.30;;
77026;SDS011;65956;52.986;17.490;2023-04-03T14:16:20;13.40;;;4.40;;
77026;SDS011;65956;52.986;17.490;2023-04-03T14:18:50;5.10;;;2.00;;
77026;SDS011;65956;52.986;17.490;2023-04-03T14:21:18;13.40;;;4.70;;
77026;SDS011;65956;52.986;17.490;2023-04-03T14:23:45;14.30;;;5.00;;
77026;SDS011;65956;52.986;17.490;2023-04-03T14:26:12;14.80;;;4.40;;
77026;SDS011;65956;52.986;17.490;2023-04-03T14:28:42;20.60;;;8.80;;
77026;SDS011;65956;52.986;17.490;2023-04-03T14:31:09;24.00;;;9.70;;
77026;SDS011;65956;52.986;17.490;2023-04-03T14:33:38;27.30;;;9.90;;
77026;SDS011;65956;52.986;17.490;2023-04-03T14:36:10;20.00;;;6.30;;
77026;SDS011;65956;52.986;17.490;2023-04-03T14:38:37;12.70;;;5.50;;
77026;SDS011;65956;52.986;17.490;2023-04-03T14:41:03;7.40;;;3.60;;
77026;SDS011;65956;52.986;17.490;2023-04-03T14:43:29;28.70;;;13.10;;
77026;SDS011;65956;52.986;17.490;2023-04-03T14:45:58;24.60;;;10.50;;
77026;SDS011;65956;52.986;17.490;2023-04-03T14:48:26;29.90;;;12.90;;
77026;SDS011;65956;52.986;17.490;2023-04-03T14:50:53;21.90;;;8.80;;
77026;SDS011;65956;52.986;17.490;2023-04-03T14:53:19;23.20;;;10.80;;
77026;SDS011;65956;52.986;17.490;2023-04-03T14:55:48;28.30;;;13.30;;
77026;SDS011;65956;52.986;17.490;2023-04-03T14:58:16;18.80;;;9.20;;
77026;SDS011;65956;52.986;17.490;2023-04-03T15:00:45;10.40;;;4.10;;
77026;SDS011;65956;52.986;17.490;2023-04-03T15:03:13;17.10;;;8.40;;
77026;SDS011;65956;52.986;17.490;2023-04-03T15:05:45;12.30;;;4.50;;
77026;SDS011;65956;52.986;17.490;2023-04-03T15:08:17;12.50;;;5.10;;
77026;SDS011;65956;52.986;17.490;2023-04-03T15:10:48;24.70;;;10.90;;
77026;SDS011;65956;52.986;17.490;2023-04-03T15:13:14;17.40;;;7.40;;
77026;SDS011;65956;52.986;17.490;2023-04-03T15:15:40;11.60;;;5.10;;
77026;SDS011;65956;52.986;17.490;2023-04-03T15:18:09;7.90;;;3.40;;
77026;SDS011;65956;52.986;17.490;2023-04-03T15:20:48;11.40;;;5.10;;
77026;SDS011;65956;52.986;17.490;2023-04-03T15:23:15;8.00;;;3.30;;
77026;SDS011;65956;52.986;17.490;2023-04-03T15:25:43;20.50;;;9.60;;
77026;SDS011;65956;52.986;17.490;2023-04-03T15:28:25;21.20;;;10.20;;
77026;SDS011;65956;52.986;17.490;2023-04-03T15:30:56;15.10;;;5.90;;
77026;SDS011;65956;52.986;17.490;2023-04-03T15:33:23;12.10;;;5.50;;
77026;SDS011;65956;52.986;17.490;2023-04-03T15:35:50;11.40;;;5.20;;
77026;SDS011;65956;52.986;17.490;2023-04-03T15:38:17;11.50;;;6.00;;
77026;SDS011;65956;52.986;17.490;2023-04-03T15:40:43;9.10;;;4.40;;
77026;SDS011;65956;52.986;17.490;2023-04-03T15:43:09;17.10;;;8.50;;
77026;SDS011;65956;52.986;17.490;2023-04-03T15:45:36;10.00;;;4.70;;
77026;SDS011;65956;52.986;17.490;2023-04-03T15:48:03;14.80;;;7.20;;
77026;SDS011;65956;52.986;17.490;2023-04-03T15:50:31;10.80;;;4.10;;
77026;SDS011;65956;52.986;17.490;2023-04-03T15:52:59;18.70;;;7.70;;
77026;SDS011;65956;52.986;17.490;2023-04-03T15:55:28;45.10;;;17.90;;
77026;SDS011;65956;52.986;17.490;2023-04-03T15:57:56;19.60;;;8.90;;
77026;SDS011;65956;52.986;17.490;2023-04-03T16:00:22;30.10;;;11.00;;
77026;SDS011;65956;52.986;17.490;2023-04-03T16:02:54;39.40;;;12.50;;
77026;SDS011;65956;52.986;17.490;2023-04-03T16:05:24;22.00;;;7.40;;
77026;SDS011;65956;52.986;17.490;2023-04-03T16:07:50;22.50;;;10.60;;
77026;SDS011;65956;52.986;17.490;2023-04-03T16:10:17;20.40;;;12.30;;
77026;SDS011;65956;52.986;17.490;2023-04-03T16:12:44;19.80;;;10.50;;
77026;SDS011;65956;52.986;17.490;2023-04-03T16:15:11;22.30;;;10.20;;